sensor_id;sensor_type;location;lat;lon;timestamp;P1;durP1;ratioP1;P2;durP2;ratioP2
73575;SDS011;61859;49.204;8.140;2022-11-20T00:01:45;9.87;;;6.30;;
73575;SDS011;61859;49.204;8.140;2022-11-20T00:04:11;9.40;;;6.07;;
73575;SDS011;61859;49.204;8.140;2022-11-20T00:06:37;9.10;;;6.67;;
73575;SDS011;61859;49.204;8.140;2022-11-20T00:09:02;10.00;;;6.33;;
73575;SDS011;61859;49.204;8.140;2022-11-20T00:11:30;9.53;;;6.37;;
73575;SDS011;61859;49.204;8.140;2022-11-20T00:13:57;9.03;;;6.50;;
73575;SDS011;61859;49.204;8.140;2022-11-20T00:16:25;8.33;;;5.43;;
73575;SDS011;61859;49.204;8.140;2022-11-20T00:18:51;8.60;;;5.87;;
73575;SDS011;61859;49.204;8.140;2022-11-20T00:21:27;9.00;;;6.30;;
73575;SDS011;61859;49.204;8.140;2022-11-20T00:23:54;8.87;;;5.90;;
73575;SDS011;61859;49.204;8.140;2022-11-20T00:26:21;8.17;;;5.67;;
73575;SDS011;61859;49.204;8.140;2022-11-20T00:28:58;8.57;;;5.47;;
73575;SDS011;61859;49.204;8.140;2022-11-20T00:31:25;10.80;;;5.93;;
73575;SDS011;61859;49.204;8.140;2022-11-20T00:33:51;8.53;;;5.63;;
73575;SDS011;61859;49.204;8.140;2022-11-20T00:36:17;6.97;;;5.47;;
73575;SDS011;61859;49.204;8.140;2022-11-20T00:38:50;8.10;;;5.67;;
73575;SDS011;61859;49.204;8.140;2022-11-20T00:41:17;8.73;;;5.53;;
73575;SDS011;61859;49.204;8.140;2022-11-20T00:43:42;7.10;;;5.30;;
73575;SDS011;61859;49.204;8.140;2022-11-20T00:46:12;8.13;;;5.43;;
73575;SDS011;61859;49.204;8.140;2022-11-20T00:48:43;8.17;;;5.70;;
73575;SDS011;61859;49.204;8.140;2022-11-20T00:51:10;7.53;;;4.90;;
73575;SDS011;61859;49.204;8.140;2022-11-20T00:53:38;7.90;;;5.20;;
73575;SDS011;61859;49.204;8.140;2022-11-20T00:56:07;8.93;;;5.53;;
73575;SDS011;61859;49.204;8.140;2022-11-20T00:58:36;8.90;;;5.40;;
73575;SDS011;61859;49.204;8.140;2022-11-20T01:01:07;8.63;;;5.60;;
73575;SDS011;61859;49.204;8.140;2022-11-20T01:03:35;10.07;;;5.97;;
73575;SDS011;61859;49.204;8.140;2022-11-20T01:06:03;8.37;;;5.90;;
73575;SDS011;61859;49.204;8.140;2022-11-20T01:08:49;7.83;;;5.37;;
73575;SDS011;61859;49.204;8.140;2022-11-20T01:11:18;7.90;;;4.93;;
73575;SDS011;61859;49.204;8.140;2022-11-20T01:13:49;10.97;;;6.43;;
73575;SDS011;61859;49.204;8.140;2022-11-20T01:18:45;9.63;;;6.30;;
73575;SDS011;61859;49.204;8.140;2022-11-20T01:21:31;8.10;;;5.17;;
73575;SDS011;61859;49.204;8.140;2022-11-20T01:23:58;7.77;;;5.63;;
73575;SDS011;61859;49.204;8.140;2022-11-20T01:26:26;7.60;;;5.27;;
73575;SDS011;61859;49.204;8.140;2022-11-20T01:28:57;7.87;;;5.30;;
73575;SDS011;61859;49.204;8.140;2022-11-20T01:31:28;8.97;;;6.27;;
73575;SDS011;61859;49.204;8.140;2022-11-20T01:34:02;8.80;;;6.07;;
73575;SDS011;61859;49.204;8.140;2022-11-20T01:36:31;8.30;;;5.57;;
73575;SDS011;61859;49.204;8.140;2022-11-20T01:38:58;9.23;;;5.90;;
73575;SDS011;61859;49.204;8.140;2022-11-20T01:41:26;9.47;;;6.73;;
73575;SDS011;61859;49.204;8.140;2022-11-20T01:44:13;8.33;;;5.23;;
73575;SDS011;61859;49.204;8.140;2022-11-20T01:46:40;8.80;;;6.03;;
73575;SDS011;61859;49.204;8.140;2022-11-20T01:49:19;9.20;;;6.20;;
73575;SDS011;61859;49.204;8.140;2022-11-20T01:52:00;8.93;;;5.80;;
73575;SDS011;61859;49.204;8.140;2022-11-20T01:54:31;8.90;;;6.10;;
73575;SDS011;61859;49.204;8.140;2022-11-20T01:57:09;10.10;;;5.83;;
73575;SDS011;61859;49.204;8.140;2022-11-20T01:59:37;8.17;;;5.50;;
73575;SDS011;61859;49.204;8.140;2022-11-20T02:02:06;9.50;;;6.43;;
73575;SDS011;61859;49.204;8.140;2022-11-20T02:04:32;7.23;;;5.43;;
73575;SDS011;61859;49.204;8.140;2022-11-20T02:07:02;9.80;;;6.20;;
73575;SDS011;61859;49.204;8.140;2022-11-20T02:09:30;9.03;;;5.43;;
73575;SDS011;61859;49.204;8.140;2022-11-20T02:11:55;7.87;;;5.53;;
73575;SDS011;61859;49.204;8.140;2022-11-20T02:14:22;11.43;;;7.13;;
73575;SDS011;61859;49.204;8.140;2022-11-20T02:16:48;12.60;;;6.80;;
73575;SDS011;61859;49.204;8.140;2022-11-20T02:19:28;8.43;;;5.47;;
73575;SDS011;61859;49.204;8.140;2022-11-20T02:24:36;9.07;;;6.17;;
73575;SDS011;61859;49.204;8.140;2022-11-20T02:27:06;9.70;;;5.97;;
73575;SDS011;61859;49.204;8.140;2022-11-20T02:29:39;9.47;;;6.00;;
73575;SDS011;61859;49.204;8.140;2022-11-20T02:32:21;8.60;;;6.00;;
73575;SDS011;61859;49.204;8.140;2022-11-20T02:34:49;10.90;;;6.60;;
73575;SDS011;61859;49.204;8.140;2022-11-20T02:37:15;13.10;;;6.53;;
73575;SDS011;61859;49.204;8.140;2022-11-20T02:39:41;9.97;;;6.47;;
73575;SDS011;61859;49.204;8.140;2022-11-20T02:42:08;9.97;;;6.33;;
73575;SDS011;61859;49.204;8.140;2022-11-20T02:44:33;11.57;;;6.97;;
73575;SDS011;61859;49.204;8.140;2022-11-20T02:46:59;10.67;;;6.57;;
73575;SDS011;61859;49.204;8.140;2022-11-20T02:49:25;8.60;;;6.30;;
73575;SDS011;61859;49.204;8.140;2022-11-20T02:51:50;11.07;;;6.67;;
73575;SDS011;61859;49.204;8.140;2022-11-20T02:54:16;9.37;;;6.10;;
73575;SDS011;61859;49.204;8.140;2022-11-20T02:56:42;8.77;;;5.97;;
73575;SDS011;61859;49.204;8.140;2022-11-20T02:59:08;9.23;;;6.30;;
73575;SDS011;61859;49.204;8.140;2022-11-20T03:01:34;9.27;;;6.50;;
73575;SDS011;61859;49.204;8.140;2022-11-20T03:03:59;10.80;;;6.47;;
73575;SDS011;61859;49.204;8.140;2022-11-20T03:06:25;8.37;;;5.77;;
73575;SDS011;61859;49.204;8.140;2022-11-20T03:08:50;10.77;;;6.13;;
73575;SDS011;61859;49.204;8.140;2022-11-20T03:11:16;9.23;;;6.77;;
73575;SDS011;61859;49.204;8.140;2022-11-20T03:13:42;10.23;;;6.90;;
73575;SDS011;61859;49.204;8.140;2022-11-20T03:18:35;9.73;;;6.30;;
73575;SDS011;61859;49.204;8.140;2022-11-20T03:21:00;9.83;;;6.63;;
73575;SDS011;61859;49.204;8.140;2022-11-20T03:23:26;8.70;;;6.10;;
73575;SDS011;61859;49.204;8.140;2022-11-20T03:25:54;7.47;;;6.03;;
73575;SDS011;61859;49.204;8.140;2022-11-20T03:28:20;10.37;;;6.63;;
73575;SDS011;61859;49.204;8.140;2022-11-20T03:30:45;10.17;;;6.43;;
73575;SDS011;61859;49.204;8.140;2022-11-20T03:33:11;11.93;;;6.77;;
73575;SDS011;61859;49.204;8.140;2022-11-20T03:35:36;10.67;;;6.77;;
73575;SDS011;61859;49.204;8.140;2022-11-20T03:38:02;9.07;;;5.93;;
73575;SDS011;61859;49.204;8.140;2022-11-20T03:40:27;10.30;;;6.27;;
73575;SDS011;61859;49.204;8.140;2022-11-20T03:42:53;11.23;;;6.73;;
73575;SDS011;61859;49.204;8.140;2022-11-20T03:45:18;8.53;;;5.60;;
73575;SDS011;61859;49.204;8.140;2022-11-20T03:47:44;10.33;;;6.43;;
73575;SDS011;61859;49.204;8.140;2022-11-20T03:50:11;9.27;;;6.30;;
73575;SDS011;61859;49.204;8.140;2022-11-20T03:52:38;9.53;;;6.20;;
73575;SDS011;61859;49.204;8.140;2022-11-20T03:55:05;9.07;;;6.33;;
73575;SDS011;61859;49.204;8.140;2022-11-20T03:57:31;10.33;;;6.40;;
73575;SDS011;61859;49.204;8.140;2022-11-20T03:59:56;8.87;;;5.60;;
73575;SDS011;61859;49.204;8.140;2022-11-20T04:02:22;10.60;;;6.13;;
73575;SDS011;61859;49.204;8.140;2022-11-20T04:04:48;10.10;;;6.63;;
73575;SDS011;61859;49.204;8.140;2022-11-20T04:07:13;13.10;;;7.13;;
73575;SDS011;61859;49.204;8.140;2022-11-20T04:09:39;11.13;;;7.43;;
73575;SDS011;61859;49.204;8.140;2022-11-20T04:12:04;11.97;;;7.70;;
73575;SDS011;61859;49.204;8.140;2022-11-20T04:14:30;11.40;;;6.83;;
73575;SDS011;61859;49.204;8.140;2022-11-20T04:16:55;11.37;;;6.93;;
73575;SDS011;61859;49.204;8.140;2022-11-20T04:19:21;8.30;;;5.83;;
73575;SDS011;61859;49.204;8.140;2022-11-20T04:21:46;8.93;;;6.10;;
73575;SDS011;61859;49.204;8.140;2022-11-20T04:24:12;10.13;;;6.40;;
73575;SDS011;61859;49.204;8.140;2022-11-20T04:26:38;9.23;;;6.53;;
73575;SDS011;61859;49.204;8.140;2022-11-20T04:29:04;10.30;;;6.27;;
73575;SDS011;61859;49.204;8.140;2022-11-20T04:31:33;10.10;;;6.90;;
73575;SDS011;61859;49.204;8.140;2022-11-20T04:34:00;9.37;;;6.23;;
73575;SDS011;61859;49.204;8.140;2022-11-20T04:36:27;8.87;;;6.37;;
73575;SDS011;61859;49.204;8.140;2022-11-20T04:38:53;10.43;;;5.57;;
73575;SDS011;61859;49.204;8.140;2022-11-20T04:41:21;10.00;;;6.50;;
73575;SDS011;61859;49.204;8.140;2022-11-20T04:43:48;11.10;;;7.23;;
73575;SDS011;61859;49.204;8.140;2022-11-20T04:46:16;9.10;;;6.33;;
73575;SDS011;61859;49.204;8.140;2022-11-20T04:48:42;7.93;;;5.37;;
73575;SDS011;61859;49.204;8.140;2022-11-20T04:51:08;6.27;;;4.97;;
73575;SDS011;61859;49.204;8.140;2022-11-20T04:53:33;6.90;;;4.50;;
73575;SDS011;61859;49.204;8.140;2022-11-20T04:56:03;4.90;;;3.97;;
73575;SDS011;61859;49.204;8.140;2022-11-20T04:58:31;5.10;;;3.50;;
73575;SDS011;61859;49.204;8.140;2022-11-20T05:01:00;6.20;;;4.27;;
73575;SDS011;61859;49.204;8.140;2022-11-20T05:03:30;4.17;;;3.37;;
73575;SDS011;61859;49.204;8.140;2022-11-20T05:05:56;6.50;;;3.13;;
73575;SDS011;61859;49.204;8.140;2022-11-20T05:08:24;3.40;;;2.83;;
73575;SDS011;61859;49.204;8.140;2022-11-20T05:10:50;3.20;;;2.90;;
73575;SDS011;61859;49.204;8.140;2022-11-20T05:13:15;3.53;;;2.80;;
73575;SDS011;61859;49.204;8.140;2022-11-20T05:15:41;3.20;;;2.90;;
73575;SDS011;61859;49.204;8.140;2022-11-20T05:18:06;4.17;;;3.20;;
73575;SDS011;61859;49.204;8.140;2022-11-20T05:20:32;3.70;;;2.77;;
73575;SDS011;61859;49.204;8.140;2022-11-20T05:22:58;3.73;;;2.40;;
73575;SDS011;61859;49.204;8.140;2022-11-20T05:25:23;3.70;;;2.70;;
73575;SDS011;61859;49.204;8.140;2022-11-20T05:27:49;2.73;;;2.20;;
73575;SDS011;61859;49.204;8.140;2022-11-20T05:30:14;2.73;;;2.30;;
73575;SDS011;61859;49.204;8.140;2022-11-20T05:32:40;3.97;;;3.10;;
73575;SDS011;61859;49.204;8.140;2022-11-20T05:35:06;3.30;;;2.80;;
73575;SDS011;61859;49.204;8.140;2022-11-20T05:37:32;3.77;;;3.37;;
73575;SDS011;61859;49.204;8.140;2022-11-20T05:39:57;3.67;;;3.10;;
73575;SDS011;61859;49.204;8.140;2022-11-20T05:42:23;3.53;;;2.73;;
73575;SDS011;61859;49.204;8.140;2022-11-20T05:44:58;4.83;;;3.10;;
73575;SDS011;61859;49.204;8.140;2022-11-20T05:47:25;3.13;;;2.83;;
73575;SDS011;61859;49.204;8.140;2022-11-20T05:49:56;3.20;;;2.87;;
73575;SDS011;61859;49.204;8.140;2022-11-20T05:52:22;3.10;;;2.77;;
73575;SDS011;61859;49.204;8.140;2022-11-20T05:54:47;3.73;;;2.73;;
73575;SDS011;61859;49.204;8.140;2022-11-20T05:57:13;3.37;;;3.07;;
73575;SDS011;61859;49.204;8.140;2022-11-20T05:59:38;6.10;;;3.10;;
73575;SDS011;61859;49.204;8.140;2022-11-20T06:02:04;3.63;;;2.97;;
73575;SDS011;61859;49.204;8.140;2022-11-20T06:04:29;3.47;;;3.10;;
73575;SDS011;61859;49.204;8.140;2022-11-20T06:06:55;5.10;;;3.97;;
73575;SDS011;61859;49.204;8.140;2022-11-20T06:09:20;4.00;;;2.97;;
73575;SDS011;61859;49.204;8.140;2022-11-20T06:11:46;3.40;;;3.10;;
73575;SDS011;61859;49.204;8.140;2022-11-20T06:14:12;3.83;;;2.93;;
73575;SDS011;61859;49.204;8.140;2022-11-20T06:16:37;2.97;;;2.57;;
73575;SDS011;61859;49.204;8.140;2022-11-20T06:19:03;2.47;;;2.27;;
73575;SDS011;61859;49.204;8.140;2022-11-20T06:21:28;3.10;;;2.80;;
73575;SDS011;61859;49.204;8.140;2022-11-20T06:23:54;3.23;;;2.57;;
73575;SDS011;61859;49.204;8.140;2022-11-20T06:26:20;2.63;;;2.43;;
73575;SDS011;61859;49.204;8.140;2022-11-20T06:28:47;3.17;;;2.87;;
73575;SDS011;61859;49.204;8.140;2022-11-20T06:31:14;2.83;;;2.40;;
73575;SDS011;61859;49.204;8.140;2022-11-20T06:33:41;3.10;;;2.60;;
73575;SDS011;61859;49.204;8.140;2022-11-20T06:36:07;2.90;;;2.60;;
73575;SDS011;61859;49.204;8.140;2022-11-20T06:38:35;3.00;;;2.50;;
73575;SDS011;61859;49.204;8.140;2022-11-20T06:41:00;2.30;;;1.97;;
73575;SDS011;61859;49.204;8.140;2022-11-20T06:43:28;3.03;;;2.40;;
73575;SDS011;61859;49.204;8.140;2022-11-20T06:45:54;6.47;;;2.20;;
73575;SDS011;61859;49.204;8.140;2022-11-20T06:48:21;1.80;;;1.70;;
73575;SDS011;61859;49.204;8.140;2022-11-20T06:50:47;2.30;;;2.10;;
73575;SDS011;61859;49.204;8.140;2022-11-20T06:53:13;2.20;;;2.00;;
73575;SDS011;61859;49.204;8.140;2022-11-20T06:55:41;2.00;;;1.80;;
73575;SDS011;61859;49.204;8.140;2022-11-20T06:58:08;2.20;;;2.00;;
73575;SDS011;61859;49.204;8.140;2022-11-20T07:00:34;2.23;;;2.03;;
73575;SDS011;61859;49.204;8.140;2022-11-20T07:03:02;2.77;;;2.50;;
73575;SDS011;61859;49.204;8.140;2022-11-20T07:05:32;4.47;;;3.30;;
73575;SDS011;61859;49.204;8.140;2022-11-20T07:07:57;6.90;;;3.70;;
73575;SDS011;61859;49.204;8.140;2022-11-20T07:10:23;5.73;;;5.13;;
73575;SDS011;61859;49.204;8.140;2022-11-20T07:12:50;4.10;;;3.67;;
73575;SDS011;61859;49.204;8.140;2022-11-20T07:15:16;2.93;;;2.63;;
73575;SDS011;61859;49.204;8.140;2022-11-20T07:17:42;2.87;;;2.57;;
73575;SDS011;61859;49.204;8.140;2022-11-20T07:20:08;3.03;;;2.80;;
73575;SDS011;61859;49.204;8.140;2022-11-20T07:22:34;3.00;;;2.53;;
73575;SDS011;61859;49.204;8.140;2022-11-20T07:25:00;4.40;;;3.53;;
73575;SDS011;61859;49.204;8.140;2022-11-20T07:27:26;3.00;;;2.70;;
73575;SDS011;61859;49.204;8.140;2022-11-20T07:29:52;3.27;;;2.93;;
73575;SDS011;61859;49.204;8.140;2022-11-20T07:32:18;3.33;;;3.00;;
73575;SDS011;61859;49.204;8.140;2022-11-20T07:34:43;3.13;;;2.70;;
73575;SDS011;61859;49.204;8.140;2022-11-20T07:37:09;5.13;;;3.30;;
73575;SDS011;61859;49.204;8.140;2022-11-20T07:39:34;3.93;;;3.33;;
73575;SDS011;61859;49.204;8.140;2022-11-20T07:42:00;5.03;;;3.63;;
73575;SDS011;61859;49.204;8.140;2022-11-20T07:44:25;5.37;;;3.23;;
73575;SDS011;61859;49.204;8.140;2022-11-20T07:46:51;2.87;;;2.60;;
73575;SDS011;61859;49.204;8.140;2022-11-20T07:49:16;4.10;;;3.53;;
73575;SDS011;61859;49.204;8.140;2022-11-20T07:51:42;3.50;;;3.20;;
73575;SDS011;61859;49.204;8.140;2022-11-20T07:54:08;4.13;;;3.73;;
73575;SDS011;61859;49.204;8.140;2022-11-20T07:56:33;3.70;;;2.87;;
73575;SDS011;61859;49.204;8.140;2022-11-20T07:58:59;2.60;;;2.40;;
73575;SDS011;61859;49.204;8.140;2022-11-20T08:01:24;3.90;;;2.47;;
73575;SDS011;61859;49.204;8.140;2022-11-20T08:03:50;3.23;;;2.93;;
73575;SDS011;61859;49.204;8.140;2022-11-20T08:06:16;6.47;;;4.77;;
73575;SDS011;61859;49.204;8.140;2022-11-20T08:08:42;8.50;;;5.53;;
73575;SDS011;61859;49.204;8.140;2022-11-20T08:11:14;5.50;;;4.27;;
73575;SDS011;61859;49.204;8.140;2022-11-20T08:13:58;6.97;;;5.03;;
73575;SDS011;61859;49.204;8.140;2022-11-20T08:16:56;5.40;;;3.80;;
73575;SDS011;61859;49.204;8.140;2022-11-20T08:19:22;5.33;;;4.07;;
73575;SDS011;61859;49.204;8.140;2022-11-20T08:21:47;4.83;;;3.90;;
73575;SDS011;61859;49.204;8.140;2022-11-20T08:24:13;5.13;;;4.03;;
73575;SDS011;61859;49.204;8.140;2022-11-20T08:26:39;3.13;;;2.83;;
73575;SDS011;61859;49.204;8.140;2022-11-20T08:29:05;4.47;;;3.43;;
73575;SDS011;61859;49.204;8.140;2022-11-20T08:31:31;5.87;;;4.50;;
73575;SDS011;61859;49.204;8.140;2022-11-20T08:33:57;7.50;;;5.63;;
73575;SDS011;61859;49.204;8.140;2022-11-20T08:36:23;4.13;;;3.20;;
73575;SDS011;61859;49.204;8.140;2022-11-20T08:38:50;3.57;;;3.10;;
73575;SDS011;61859;49.204;8.140;2022-11-20T08:41:17;3.10;;;2.80;;
73575;SDS011;61859;49.204;8.140;2022-11-20T08:43:48;5.57;;;2.90;;
73575;SDS011;61859;49.204;8.140;2022-11-20T08:46:35;9.37;;;6.33;;
73575;SDS011;61859;49.204;8.140;2022-11-20T08:49:07;2.40;;;1.90;;
73575;SDS011;61859;49.204;8.140;2022-11-20T08:51:34;6.90;;;3.90;;
73575;SDS011;61859;49.204;8.140;2022-11-20T08:54:00;3.10;;;2.80;;
73575;SDS011;61859;49.204;8.140;2022-11-20T08:56:26;5.90;;;3.70;;
73575;SDS011;61859;49.204;8.140;2022-11-20T08:58:52;8.63;;;5.67;;
73575;SDS011;61859;49.204;8.140;2022-11-20T09:01:18;10.10;;;6.40;;
73575;SDS011;61859;49.204;8.140;2022-11-20T09:03:45;3.83;;;2.90;;
73575;SDS011;61859;49.204;8.140;2022-11-20T09:06:11;7.53;;;4.47;;
73575;SDS011;61859;49.204;8.140;2022-11-20T09:08:36;4.03;;;3.50;;
73575;SDS011;61859;49.204;8.140;2022-11-20T09:11:02;2.87;;;2.57;;
73575;SDS011;61859;49.204;8.140;2022-11-20T09:13:29;4.40;;;2.90;;
73575;SDS011;61859;49.204;8.140;2022-11-20T09:15:55;3.53;;;3.20;;
73575;SDS011;61859;49.204;8.140;2022-11-20T09:18:23;3.53;;;2.03;;
73575;SDS011;61859;49.204;8.140;2022-11-20T09:20:49;3.03;;;2.70;;
73575;SDS011;61859;49.204;8.140;2022-11-20T09:23:15;4.47;;;2.83;;
73575;SDS011;61859;49.204;8.140;2022-11-20T09:25:41;1.80;;;1.70;;
73575;SDS011;61859;49.204;8.140;2022-11-20T09:28:07;5.53;;;2.53;;
73575;SDS011;61859;49.204;8.140;2022-11-20T09:30:33;3.67;;;1.70;;
73575;SDS011;61859;49.204;8.140;2022-11-20T09:32:58;10.77;;;5.20;;
73575;SDS011;61859;49.204;8.140;2022-11-20T09:35:24;5.77;;;3.07;;
73575;SDS011;61859;49.204;8.140;2022-11-20T09:37:49;2.13;;;1.93;;
73575;SDS011;61859;49.204;8.140;2022-11-20T09:40:22;5.40;;;2.97;;
73575;SDS011;61859;49.204;8.140;2022-11-20T09:42:54;9.63;;;5.63;;
73575;SDS011;61859;49.204;8.140;2022-11-20T09:53:12;3.10;;;1.97;;
73575;SDS011;61859;49.204;8.140;2022-11-20T09:55:57;1.20;;;1.10;;
73575;SDS011;61859;49.204;8.140;2022-11-20T09:58:28;1.43;;;1.33;;
73575;SDS011;61859;49.204;8.140;2022-11-20T10:01:19;1.87;;;1.70;;
73575;SDS011;61859;49.204;8.140;2022-11-20T10:06:31;2.90;;;2.43;;
73575;SDS011;61859;49.204;8.140;2022-11-20T10:14:31;2.60;;;1.93;;
73575;SDS011;61859;49.204;8.140;2022-11-20T10:17:29;1.50;;;1.40;;
73575;SDS011;61859;49.204;8.140;2022-11-20T10:25:28;2.87;;;2.00;;
73575;SDS011;61859;49.204;8.140;2022-11-20T10:28:16;1.50;;;1.40;;
73575;SDS011;61859;49.204;8.140;2022-11-20T10:31:04;2.73;;;1.63;;
73575;SDS011;61859;49.204;8.140;2022-11-20T10:33:36;2.03;;;1.60;;
73575;SDS011;61859;49.204;8.140;2022-11-20T10:38:45;1.50;;;1.40;;
73575;SDS011;61859;49.204;8.140;2022-11-20T10:41:40;1.50;;;1.03;;
73575;SDS011;61859;49.204;8.140;2022-11-20T10:44:20;1.40;;;1.30;;
73575;SDS011;61859;49.204;8.140;2022-11-20T10:47:12;1.90;;;1.53;;
73575;SDS011;61859;49.204;8.140;2022-11-20T10:49:39;2.40;;;1.40;;
73575;SDS011;61859;49.204;8.140;2022-11-20T11:00:25;1.20;;;0.93;;
73575;SDS011;61859;49.204;8.140;2022-11-20T11:02:52;2.10;;;1.20;;
73575;SDS011;61859;49.204;8.140;2022-11-20T11:07:46;3.10;;;1.30;;
73575;SDS011;61859;49.204;8.140;2022-11-20T11:12:56;5.73;;;1.70;;
73575;SDS011;61859;49.204;8.140;2022-11-20T11:15:28;4.93;;;1.70;;
73575;SDS011;61859;49.204;8.140;2022-11-20T11:18:01;1.07;;;0.97;;
73575;SDS011;61859;49.204;8.140;2022-11-20T11:20:27;1.20;;;1.10;;
73575;SDS011;61859;49.204;8.140;2022-11-20T11:22:53;3.20;;;1.60;;
73575;SDS011;61859;49.204;8.140;2022-11-20T11:25:28;1.43;;;0.93;;
73575;SDS011;61859;49.204;8.140;2022-11-20T11:28:41;2.13;;;1.40;;
73575;SDS011;61859;49.204;8.140;2022-11-20T11:30:42;1.03;;;0.93;;
73575;SDS011;61859;49.204;8.140;2022-11-20T11:33:10;1.63;;;0.90;;
73575;SDS011;61859;49.204;8.140;2022-11-20T11:35:47;4.40;;;1.40;;
73575;SDS011;61859;49.204;8.140;2022-11-20T11:38:36;3.00;;;1.80;;
73575;SDS011;61859;49.204;8.140;2022-11-20T11:41:09;2.10;;;1.93;;
73575;SDS011;61859;49.204;8.140;2022-11-20T11:43:50;3.77;;;1.47;;
73575;SDS011;61859;49.204;8.140;2022-11-20T11:46:37;2.07;;;1.40;;
73575;SDS011;61859;49.204;8.140;2022-11-20T11:54:22;2.03;;;1.37;;
73575;SDS011;61859;49.204;8.140;2022-11-20T11:56:51;1.87;;;1.00;;
73575;SDS011;61859;49.204;8.140;2022-11-20T11:59:24;0.77;;;0.73;;
73575;SDS011;61859;49.204;8.140;2022-11-20T12:02:01;1.30;;;1.20;;
73575;SDS011;61859;49.204;8.140;2022-11-20T12:04:48;1.10;;;0.90;;
73575;SDS011;61859;49.204;8.140;2022-11-20T12:07:20;5.20;;;2.57;;
73575;SDS011;61859;49.204;8.140;2022-11-20T12:09:57;2.10;;;1.27;;
73575;SDS011;61859;49.204;8.140;2022-11-20T12:12:30;2.10;;;0.90;;
73575;SDS011;61859;49.204;8.140;2022-11-20T12:15:00;1.60;;;1.17;;
73575;SDS011;61859;49.204;8.140;2022-11-20T12:17:27;0.70;;;0.70;;
73575;SDS011;61859;49.204;8.140;2022-11-20T12:19:52;1.00;;;0.90;;
73575;SDS011;61859;49.204;8.140;2022-11-20T12:22:33;2.73;;;1.20;;
73575;SDS011;61859;49.204;8.140;2022-11-20T12:25:19;1.60;;;0.93;;
73575;SDS011;61859;49.204;8.140;2022-11-20T12:30:24;0.53;;;0.50;;
73575;SDS011;61859;49.204;8.140;2022-11-20T12:52:58;1.17;;;0.70;;
73575;SDS011;61859;49.204;8.140;2022-11-20T13:07:20;2.77;;;1.03;;
73575;SDS011;61859;49.204;8.140;2022-11-20T13:09:48;3.67;;;1.27;;
73575;SDS011;61859;49.204;8.140;2022-11-20T13:12:25;2.30;;;1.13;;
73575;SDS011;61859;49.204;8.140;2022-11-20T13:17:51;1.07;;;0.70;;
73575;SDS011;61859;49.204;8.140;2022-11-20T13:20:22;1.93;;;0.70;;
73575;SDS011;61859;49.204;8.140;2022-11-20T13:22:52;1.03;;;0.90;;
73575;SDS011;61859;49.204;8.140;2022-11-20T13:25:22;3.37;;;1.10;;
73575;SDS011;61859;49.204;8.140;2022-11-20T13:27:54;2.87;;;1.10;;
73575;SDS011;61859;49.204;8.140;2022-11-20T13:30:25;0.97;;;0.90;;
73575;SDS011;61859;49.204;8.140;2022-11-20T13:35:31;0.67;;;0.63;;
73575;SDS011;61859;49.204;8.140;2022-11-20T13:37:59;2.20;;;1.50;;
73575;SDS011;61859;49.204;8.140;2022-11-20T13:43:32;3.63;;;1.23;;
73575;SDS011;61859;49.204;8.140;2022-11-20T13:46:05;1.10;;;0.90;;
73575;SDS011;61859;49.204;8.140;2022-11-20T13:48:33;2.57;;;0.40;;
73575;SDS011;61859;49.204;8.140;2022-11-20T13:54:20;1.53;;;0.80;;
73575;SDS011;61859;49.204;8.140;2022-11-20T13:56:54;1.70;;;1.60;;
73575;SDS011;61859;49.204;8.140;2022-11-20T14:02:17;1.90;;;0.80;;
73575;SDS011;61859;49.204;8.140;2022-11-20T14:04:45;2.23;;;0.90;;
73575;SDS011;61859;49.204;8.140;2022-11-20T14:07:13;1.03;;;0.80;;
73575;SDS011;61859;49.204;8.140;2022-11-20T14:09:49;2.77;;;0.80;;
73575;SDS011;61859;49.204;8.140;2022-11-20T14:12:17;1.37;;;1.10;;
73575;SDS011;61859;49.204;8.140;2022-11-20T14:14:49;0.70;;;0.70;;
73575;SDS011;61859;49.204;8.140;2022-11-20T14:17:35;2.27;;;0.93;;
73575;SDS011;61859;49.204;8.140;2022-11-20T14:20:05;4.57;;;1.40;;
73575;SDS011;61859;49.204;8.140;2022-11-20T14:22:36;1.10;;;0.90;;
73575;SDS011;61859;49.204;8.140;2022-11-20T14:27:40;1.20;;;1.10;;
73575;SDS011;61859;49.204;8.140;2022-11-20T14:30:19;3.37;;;1.37;;
73575;SDS011;61859;49.204;8.140;2022-11-20T14:32:50;2.67;;;1.60;;
73575;SDS011;61859;49.204;8.140;2022-11-20T14:37:52;3.70;;;2.50;;
73575;SDS011;61859;49.204;8.140;2022-11-20T14:40:34;1.83;;;0.77;;
73575;SDS011;61859;49.204;8.140;2022-11-20T14:43:01;3.17;;;1.20;;
73575;SDS011;61859;49.204;8.140;2022-11-20T14:45:40;1.00;;;0.70;;
73575;SDS011;61859;49.204;8.140;2022-11-20T14:48:08;1.30;;;1.03;;
73575;SDS011;61859;49.204;8.140;2022-11-20T14:50:35;1.83;;;1.20;;
73575;SDS011;61859;49.204;8.140;2022-11-20T14:53:03;1.00;;;0.80;;
73575;SDS011;61859;49.204;8.140;2022-11-20T14:55:35;1.60;;;1.10;;
73575;SDS011;61859;49.204;8.140;2022-11-20T14:58:24;0.80;;;0.80;;
73575;SDS011;61859;49.204;8.140;2022-11-20T15:00:57;0.83;;;0.80;;
73575;SDS011;61859;49.204;8.140;2022-11-20T15:03:31;1.67;;;1.20;;
73575;SDS011;61859;49.204;8.140;2022-11-20T15:06:05;1.30;;;1.00;;
73575;SDS011;61859;49.204;8.140;2022-11-20T15:08:32;2.07;;;1.60;;
73575;SDS011;61859;49.204;8.140;2022-11-20T15:10:58;3.47;;;1.57;;
73575;SDS011;61859;49.204;8.140;2022-11-20T15:13:31;1.83;;;1.03;;
73575;SDS011;61859;49.204;8.140;2022-11-20T15:16:07;1.40;;;1.10;;
73575;SDS011;61859;49.204;8.140;2022-11-20T15:18:40;2.00;;;1.40;;
73575;SDS011;61859;49.204;8.140;2022-11-20T15:21:14;2.50;;;1.63;;
73575;SDS011;61859;49.204;8.140;2022-11-20T15:23:41;4.63;;;2.77;;
73575;SDS011;61859;49.204;8.140;2022-11-20T15:26:08;5.00;;;2.00;;
73575;SDS011;61859;49.204;8.140;2022-11-20T15:31:12;2.67;;;1.90;;
73575;SDS011;61859;49.204;8.140;2022-11-20T15:33:40;2.93;;;1.43;;
73575;SDS011;61859;49.204;8.140;2022-11-20T15:36:05;3.17;;;2.00;;
73575;SDS011;61859;49.204;8.140;2022-11-20T15:38:33;4.77;;;1.93;;
73575;SDS011;61859;49.204;8.140;2022-11-20T15:40:59;3.27;;;1.90;;
73575;SDS011;61859;49.204;8.140;2022-11-20T15:43:24;4.60;;;1.50;;
73575;SDS011;61859;49.204;8.140;2022-11-20T15:45:51;2.97;;;1.47;;
73575;SDS011;61859;49.204;8.140;2022-11-20T15:48:23;3.87;;;1.53;;
73575;SDS011;61859;49.204;8.140;2022-11-20T15:53:26;5.73;;;1.67;;
73575;SDS011;61859;49.204;8.140;2022-11-20T15:55:52;1.57;;;1.10;;
73575;SDS011;61859;49.204;8.140;2022-11-20T15:58:18;1.33;;;1.23;;
73575;SDS011;61859;49.204;8.140;2022-11-20T16:00:44;1.47;;;1.33;;
73575;SDS011;61859;49.204;8.140;2022-11-20T16:03:12;2.70;;;1.90;;
73575;SDS011;61859;49.204;8.140;2022-11-20T16:05:39;2.33;;;0.97;;
73575;SDS011;61859;49.204;8.140;2022-11-20T16:08:05;2.07;;;1.00;;
73575;SDS011;61859;49.204;8.140;2022-11-20T16:10:30;2.00;;;1.17;;
73575;SDS011;61859;49.204;8.140;2022-11-20T16:12:56;3.77;;;2.67;;
73575;SDS011;61859;49.204;8.140;2022-11-20T16:15:40;1.47;;;1.30;;
73575;SDS011;61859;49.204;8.140;2022-11-20T16:18:12;2.33;;;1.30;;
73575;SDS011;61859;49.204;8.140;2022-11-20T16:20:40;1.53;;;1.00;;
73575;SDS011;61859;49.204;8.140;2022-11-20T16:23:06;2.00;;;1.57;;
73575;SDS011;61859;49.204;8.140;2022-11-20T16:25:32;1.77;;;1.17;;
73575;SDS011;61859;49.204;8.140;2022-11-20T16:27:58;2.93;;;1.33;;
73575;SDS011;61859;49.204;8.140;2022-11-20T16:30:23;1.93;;;1.40;;
73575;SDS011;61859;49.204;8.140;2022-11-20T16:32:49;1.53;;;1.40;;
73575;SDS011;61859;49.204;8.140;2022-11-20T16:35:14;2.50;;;1.40;;
73575;SDS011;61859;49.204;8.140;2022-11-20T16:37:40;6.90;;;1.60;;
73575;SDS011;61859;49.204;8.140;2022-11-20T16:40:07;3.83;;;1.40;;
73575;SDS011;61859;49.204;8.140;2022-11-20T16:42:33;3.67;;;1.70;;
73575;SDS011;61859;49.204;8.140;2022-11-20T16:44:59;4.17;;;1.50;;
73575;SDS011;61859;49.204;8.140;2022-11-20T16:47:25;3.37;;;1.47;;